Time;durP1;ratioP1;P1;durP2;ratioP2;P2;SDS_P1;SDS_P2;PMS_P1;PMS_P2;Temp;Humidity;BMP_temperature;BMP_pressure;BME280_temperature;BME280_humidity;BME280_pressure;Samples;Min_cycle;Max_cycle;Signal;HPM_P1;HPM_P2
2023/05/02 00:00:05;;;;;;;11.60;3.80;;;;;;;7.95;50.96;99226.02;105947;1256;95227;-83
2023/05/02 00:03:02;;;;;;;12.70;3.60;;;;;;;7.93;51.08;99221.89;105545;1257;95336;-83
2023/05/02 00:05:33;;;;;;;10.50;3.20;;;;;;;7.91;51.09;99220.09;106092;1251;95099;-82
2023/05/02 00:08:00;;;;;;;11.30;3.60;;;;;;;7.87;51.10;99216.60;106405;1256;108639;-83
2023/05/02 00:10:26;;;;;;;14.50;4.20;;;;;;;7.82;51.14;99216.52;105978;1268;101409;-82
2023/05/02 00:12:55;;;;;;;13.80;3.90;;;;;;;7.76;51.28;99213.33;108672;1251;106700;-83
2023/05/02 00:15:22;;;;;;;13.00;4.00;;;;;;;7.68;51.28;99209.04;107329;1251;95288;-82
2023/05/02 00:17:55;;;;;;;14.80;4.70;;;;;;;7.62;51.35;99210.09;106879;1251;95157;-83
2023/05/02 00:20:26;;;;;;;15.70;4.10;;;;;;;7.56;51.34;99209.20;107131;1251;108666;-82
2023/05/02 00:22:56;;;;;;;10.70;3.70;;;;;;;7.48;51.57;99206.14;108794;1251;101139;-83
2023/05/02 00:25:22;;;;;;;13.70;3.90;;;;;;;7.41;51.48;99202.48;108738;1251;107784;-82
2023/05/02 00:27:51;;;;;;;10.20;3.60;;;;;;;7.35;51.56;99204.43;108763;1251;92963;-83
2023/05/02 00:30:19;;;;;;;11.40;3.80;;;;;;;7.30;51.62;99208.25;107986;1251;94248;-83
2023/05/02 00:32:46;;;;;;;11.90;4.10;;;;;;;7.23;51.66;99208.44;108749;1251;106846;-83
2023/05/02 00:35:13;;;;;;;10.00;3.60;;;;;;;7.17;51.63;99207.87;108756;1251;93239;-83
2023/05/02 00:37:46;;;;;;;12.60;3.80;;;;;;;7.11;51.64;99208.38;107547;1251;95342;-82
2023/05/02 00:40:12;;;;;;;11.80;4.40;;;;;;;7.05;51.78;99206.61;106186;1260;95237;-82
2023/05/02 00:42:42;;;;;;;16.10;4.50;;;;;;;6.99;51.84;99209.19;105855;1251;95275;-81
2023/05/02 00:45:09;;;;;;;15.70;5.50;;;;;;;7.02;51.87;99212.95;105841;1251;108111;-82
2023/05/02 00:47:40;;;;;;;14.50;4.20;;;;;;;7.01;51.82;99209.30;105627;1257;96426;-83
2023/05/02 00:50:11;;;;;;;10.60;4.30;;;;;;;7.03;51.74;99214.16;105657;1257;107627;-82
2023/05/02 00:52:42;;;;;;;13.50;4.70;;;;;;;7.03;51.77;99210.61;105793;1251;96728;-83
2023/05/02 00:55:09;;;;;;;15.30;5.20;;;;;;;7.00;51.82;99211.83;105557;1257;97892;-82
2023/05/02 00:57:38;;;;;;;13.20;4.60;;;;;;;6.94;51.91;99209.17;105944;1251;96605;-82
2023/05/02 01:00:08;;;;;;;14.10;5.10;;;;;;;6.82;52.13;99210.67;106230;1257;100861;-83
2023/05/02 01:02:44;;;;;;;13.80;5.30;;;;;;;6.69;52.15;99216.50;106210;1251;105784;-82
2023/05/02 01:05:32;;;;;;;16.00;5.70;;;;;;;6.62;52.19;99224.81;105499;1259;96628;-82
2023/05/02 01:08:14;;;;;;;18.30;6.40;;;;;;;6.53;52.36;99222.30;105918;1257;97083;-82
2023/05/02 01:10:57;;;;;;;20.20;7.00;;;;;;;6.45;52.34;99222.23;105794;1251;109887;-82
2023/05/02 01:13:28;;;;;;;22.20;8.30;;;;;;;6.40;52.30;99229.30;105724;1257;100690;-82
2023/05/02 01:16:01;;;;;;;20.20;8.40;;;;;;;6.42;52.25;99232.07;105972;1266;107676;-86
2023/05/02 01:18:40;;;;;;;22.20;7.70;;;;;;;6.41;52.45;99231.22;106085;1254;96730;-82
2023/05/02 01:21:11;;;;;;;18.30;6.20;;;;;;;6.35;52.53;99230.61;106188;1254;96573;-82
2023/05/02 01:23:52;;;;;;;17.00;5.80;;;;;;;6.27;52.61;99229.48;105975;1254;109633;-83
2023/05/02 01:26:31;;;;;;;17.20;5.70;;;;;;;6.19;52.79;99230.08;105973;1251;101086;-80
2023/05/02 01:29:02;;;;;;;17.10;5.30;;;;;;;6.12;52.72;99229.55;105563;1251;107447;-82
2023/05/02 01:31:35;;;;;;;17.50;5.90;;;;;;;6.07;52.62;99231.91;106031;1251;97320;-81
2023/05/02 01:34:10;;;;;;;17.80;6.60;;;;;;;6.02;52.94;99236.19;105823;1251;97407;-82
2023/05/02 01:36:50;;;;;;;20.00;7.50;;;;;;;5.98;52.74;99235.48;105846;1257;108052;-82
2023/05/02 01:39:25;;;;;;;19.30;7.30;;;;;;;5.96;52.69;99231.93;105939;1251;100711;-83
2023/05/02 01:41:57;;;;;;;18.90;7.00;;;;;;;5.99;52.99;99231.92;105611;1258;107501;-82
2023/05/02 01:44:34;;;;;;;17.80;6.30;;;;;;;5.98;53.13;99223.70;105741;1254;97891;-83
2023/05/02 01:47:11;;;;;;;18.50;6.90;;;;;;;5.95;53.16;99227.01;105705;1254;97842;-82
2023/05/02 01:49:44;;;;;;;17.90;6.50;;;;;;;5.95;53.12;99225.11;106056;1251;109490;-82
2023/05/02 01:52:13;;;;;;;20.00;6.90;;;;;;;5.94;53.11;99224.60;106062;1251;100893;-82
2023/05/02 01:54:51;;;;;;;18.60;7.10;;;;;;;5.92;53.16;99222.39;105930;1254;107300;-82
2023/05/02 01:57:19;;;;;;;17.80;6.70;;;;;;;5.92;53.30;99222.23;105690;1251;96583;-82
2023/05/02 01:59:51;;;;;;;20.10;6.80;;;;;;;5.93;53.11;99224.48;106011;1251;96644;-82
2023/05/02 02:02:26;;;;;;;22.20;7.50;;;;;;;5.92;53.25;99222.41;105980;1251;108932;-82
2023/05/02 02:05:00;;;;;;;18.90;6.70;;;;;;;5.92;53.19;99223.85;105754;1254;100783;-82
2023/05/02 02:07:33;;;;;;;16.70;7.10;;;;;;;5.89;53.51;99224.54;105942;1259;107627;-82
2023/05/02 02:10:11;;;;;;;15.10;5.50;;;;;;;5.81;53.57;99220.69;105721;1255;97907;-82
2023/05/02 02:12:48;;;;;;;20.30;6.80;;;;;;;5.73;53.72;99220.41;105904;1251;97552;-80
2023/05/02 02:15:23;;;;;;;19.30;6.70;;;;;;;5.66;53.73;99221.11;105940;1251;108959;-82
2023/05/02 02:17:59;;;;;;;17.30;6.60;;;;;;;5.65;53.61;99222.19;105765;1253;100924;-81
2023/05/02 02:20:32;;;;;;;15.50;5.70;;;;;;;5.68;53.75;99223.09;106241;1251;107497;-80
2023/05/02 02:23:08;;;;;;;18.10;6.50;;;;;;;5.70;53.93;99221.41;105673;1257;96647;-80
2023/05/02 02:25:36;;;;;;;16.50;5.90;;;;;;;5.69;54.01;99226.22;105960;1254;98039;-81
2023/05/02 02:28:09;;;;;;;14.60;5.70;;;;;;;5.68;54.03;99223.98;106217;1254;109371;-82
2023/05/02 02:30:47;;;;;;;15.00;5.90;;;;;;;5.67;54.11;99229.33;105654;1251;99097;-82
2023/05/02 02:33:13;;;;;;;16.80;5.70;;;;;;;5.64;54.23;99232.27;105996;1254;107781;-82
2023/05/02 02:35:47;;;;;;;15.70;6.00;;;;;;;5.65;53.99;99234.88;105646;1265;97914;-82
2023/05/02 02:38:45;;;;;;;14.20;5.30;;;;;;;5.66;54.24;99237.83;105964;1252;96909;-84
2023/05/02 02:41:18;;;;;;;14.40;5.40;;;;;;;5.69;54.38;99238.39;105748;1254;110043;-83
2023/05/02 02:44:23;;;;;;;13.00;4.80;;;;;;;5.69;54.70;99232.21;105943;1258;101125;-83
2023/05/02 02:47:07;;;;;;;15.00;5.20;;;;;;;5.69;54.53;99232.55;105886;1254;107678;-83
